Flight Track Log - Related Links

Times and Time Zones

All times are in EDT time to prevent confusion due to time zone crossing. See the TFX4 flight status page for this flight to view local times or setup timezone preferences in your user account.

Time Position Orientation Groundspeed Altitude Reporting Facility
EDT Latitude Longitude Course Direction KTS MPH feet Rate Location/Type
Thu 10:41:19 AM -37.6454 144.8349 357° North 112 129 1,600  Level Aus ATC (RADAR)
Thu 10:42:19 AM -37.6030 144.8320 357° North 157 181 2,600 1,200 Climbing Aus ATC (RADAR)
Thu 10:43:34 AM -37.5456 144.8281 357° North 167 192 4,300 1,200 Climbing Aus ATC (RADAR)
Thu 10:44:39 AM -37.4940 144.8428 13° North 198 228 5,400 1,210 Climbing Aus ATC (RADAR)
Thu 10:45:38 AM -37.4584 144.8933 48° Northeast 198 228 6,800 1,254 Climbing Aus ATC (RADAR)
Thu 10:46:53 AM -37.4111 144.9602 48° Northeast 210 242 8,200 1,067 Climbing Aus ATC (RADAR)
Thu 10:47:53 AM -37.3712 145.0170 49° Northeast 219 252 9,200 1,056 Climbing Aus ATC (RADAR)
Thu 10:48:58 AM -37.3345 145.0892 57° Northeast 226 260 10,400 1,022 Climbing Aus ATC (RADAR)
Thu 10:50:08 AM -37.2928 145.1685 57° Northeast 236 272 11,500 1,062 Climbing Aus ATC (RADAR)
Thu 10:51:08 AM -37.2559 145.2387 57° Northeast 242 278 12,700 1,104 Climbing Aus ATC (RADAR)
Thu 10:52:13 AM -37.2147 145.3158 56° Northeast 248 285 13,800 912 Climbing Aus ATC (RADAR)
Thu 10:53:13 AM -37.1759 145.3890 56° Northeast 256 295 14,600 800 Climbing Aus ATC (RADAR)
Thu 10:54:13 AM -37.1353 145.4651 56° Northeast 265 305 15,400 864 Climbing Aus ATC (RADAR)
Thu 10:55:18 AM -37.0911 145.5478 56° Northeast 263 303 16,400 761 Climbing Aus ATC (RADAR)
Thu 10:56:27 AM -37.0416 145.6390 56° Northeast 273 314 17,100 605 Climbing Aus ATC (RADAR)
Thu 10:57:27 AM -36.9987 145.7195 56° Northeast 280 322 17,700 624 Climbing Aus ATC (RADAR)
Thu 10:58:32 AM -36.9520 145.8058 56° Northeast 278 320 18,400 624 Climbing Aus ATC (RADAR)
Thu 10:59:32 AM -36.9080 145.8866 56° Northeast 282 325 19,000 336 Climbing Aus ATC (RADAR)
Thu 11:00:37 AM -36.8591 145.9762 56° Northeast 293 337 19,100 48 Climbing Aus ATC (RADAR)
Thu 11:01:37 AM -36.8106 146.0648 56° Northeast 310 357 19,100  Level Aus ATC (RADAR)
Thu 11:02:47 AM -36.7522 146.1710 56° Northeast 320 368 19,100 44 Level Aus ATC (RADAR)
Thu 11:03:52 AM -36.6976 146.2714 56° Northeast 323 372 19,200 46 Climbing Aus ATC (RADAR)
Thu 11:04:57 AM -36.6431 146.3710 56° Northeast 319 367 19,200  Level Aus ATC (RADAR)
Thu 11:06:02 AM -36.5890 146.4694 56° Northeast 317 365 19,200  Level Aus ATC (RADAR)
Thu 11:07:02 AM -36.5384 146.5594 55° Northeast 317 365 19,200  Level Aus ATC (RADAR)
Thu 11:08:11 AM -36.4797 146.6646 55° Northeast 316 364 19,200  Level Aus ATC (RADAR)
Thu 11:09:11 AM -36.4302 146.7553 56° Northeast 316 364 19,200  Level Aus ATC (RADAR)
Thu 11:10:16 AM -36.3755 146.8530 55° Northeast 316 364 19,200  Level Aus ATC (RADAR)
Thu 11:11:16 AM -36.3255 146.9433 55° Northeast 316 364 19,200  Level Aus ATC (RADAR)
Thu 11:12:16 AM -36.2747 147.0324 55° Northeast 316 364 19,200  Level Aus ATC (RADAR)
Thu 11:13:21 AM -36.2205 147.1296 55° Northeast 314 361 19,200  Level Aus ATC (RADAR)
Thu 11:14:36 AM -36.1573 147.2416 55° Northeast 316 364 19,200  Level Aus ATC (RADAR)
Thu 11:15:41 AM -36.1023 147.3386 55° Northeast 316 364 19,200  Level Aus ATC (RADAR)
Thu 11:16:41 AM -36.0519 147.4286 55° Northeast 316 364 19,200  Level Aus ATC (RADAR)
Thu 11:17:50 AM -35.9922 147.5326 55° Northeast 315 362 19,200  Level Aus ATC (RADAR)
Thu 11:18:50 AM -35.9415 147.6219 55° Northeast 314 361 19,200  Level Aus ATC (RADAR)
Thu 11:19:55 AM -35.8871 147.7190 55° Northeast 314 361 19,200  Level Aus ATC (RADAR)
Thu 11:21:00 AM -35.8317 147.8150 55° Northeast 315 362 19,200  Level Aus ATC (RADAR)
Thu 11:22:00 AM -35.7805 147.9040 55° Northeast 317 365 19,200  Level Aus ATC (RADAR)
Thu 11:23:05 AM -35.7247 148.0007 55° Northeast 317 365 19,200 -46 Level Aus ATC (RADAR)
Thu 11:24:10 AM -35.6692 148.0973 55° Northeast 316 364 19,100  Descending Aus ATC (RADAR)
Thu 11:25:15 AM -35.6142 148.1928 55° Northeast 313 360 19,200 48 Climbing Aus ATC (RADAR)
Thu 11:26:15 AM -35.5633 148.2814 55° Northeast 316 364 19,200 -48 Level Aus ATC (RADAR)
Thu 11:27:20 AM -35.5081 148.3755 54° Northeast 310 357 19,100 -47 Descending Aus ATC (RADAR)
Thu 11:28:24 AM -35.4537 148.4685 54° Northeast 309 356 19,100  Level Aus ATC (RADAR)
Thu 11:29:39 AM -35.3907 148.5755 54° Northeast 306 352 19,100  Level Aus ATC (RADAR)
Thu 11:30:44 AM -35.3366 148.6677 54° Northeast 305 351 19,100  Level Aus ATC (RADAR)
Thu 11:31:49 AM -35.2821 148.7603 54° Northeast 307 353 19,100  Level Aus ATC (RADAR)
Thu 11:32:49 AM -35.2318 148.8460 54° Northeast 305 351 19,100  Level Aus ATC (RADAR)
Thu 11:33:54 AM -35.1770 148.9383 54° Northeast 309 356 19,100  Level Aus ATC (RADAR)
Thu 11:34:59 AM -35.1218 149.0319 54° Northeast 310 357 19,100  Level Aus ATC (RADAR)
Thu 11:35:59 AM -35.0706 149.1181 54° Northeast 310 357 19,100  Level Aus ATC (RADAR)
Thu 11:37:04 AM -35.0152 149.2115 54° Northeast 311 358 19,100  Level Aus ATC (RADAR)
Thu 11:38:09 AM -34.9595 149.3043 54° Northeast 310 357 19,100  Level Aus ATC (RADAR)
Thu 11:39:09 AM -34.9084 149.3895 54° Northeast 306 352 19,100  Level Aus ATC (RADAR)
Thu 11:40:14 AM -34.8535 149.4809 54° Northeast 306 352 19,100  Level Aus ATC (RADAR)
Thu 11:41:18 AM -34.7994 149.5708 54° Northeast 299 344 19,100  Level Aus ATC (RADAR)
Thu 11:42:18 AM -34.7496 149.6532 54° Northeast 298 343 19,100  Level Aus ATC (RADAR)
Thu 11:43:28 AM -34.6916 149.7489 54° Northeast 298 343 19,100  Level Aus ATC (RADAR)
Thu 11:44:38 AM -34.6345 149.8434 54° Northeast 293 337 19,100  Level Aus ATC (RADAR)
Thu 11:45:43 AM -34.5813 149.9306 53° Northeast 294 338 19,100  Level Aus ATC (RADAR)
Thu 11:46:48 AM -34.5279 150.0186 54° Northeast 295 339 19,100 -192 Level Aus ATC (RADAR)
Thu 11:47:48 AM -34.4780 150.1004 54° Northeast 299 344 18,700 -1,062 Descending Aus ATC (RADAR)
Thu 11:48:58 AM -34.4135 150.2056 53° Northeast 330 380 16,800 -1,662 Descending Aus ATC (RADAR)
Thu 11:49:58 AM -34.3600 150.2931 53° Northeast 313 360 15,100 -1,680 Descending Aus ATC (RADAR)
Thu 11:51:03 AM -34.3033 150.3851 53° Northeast 304 350 13,300 -1,674 Descending Aus ATC (RADAR)
Thu 11:52:07 AM -34.2475 150.4749 53° Northeast 297 342 11,500 -1,645 Descending Aus ATC (RADAR)
Thu 11:53:07 AM -34.1985 150.5549 53° Northeast 286 329 9,900 -1,632 Descending Aus ATC (RADAR)
Thu 11:54:12 AM -34.1473 150.6376 53° Northeast 273 314 8,100 -1,523 Descending Aus ATC (RADAR)
Thu 11:55:17 AM -34.0976 150.7175 53° Northeast 268 308 6,600 -1,392 Descending Aus ATC (RADAR)
Thu 11:56:17 AM -34.0526 150.7901 53° Northeast 264 304 5,200 -1,392 Descending Aus ATC (RADAR)
Thu 11:57:22 AM -34.0087 150.8616 54° Northeast 227 261 3,700 -1,246 Descending Aus ATC (RADAR)
Thu 11:58:27 AM -33.9702 150.9180 51° Northeast 186 214 2,500 -1,056 Descending Aus ATC (RADAR)
Thu 11:59:27 AM -33.9338 150.9326 18° North 145 167 1,500 -912 Descending Aus ATC (RADAR)
Thu 12:00:32 PM -33.9042 150.9547 32° Northeast 129 148 600 -831 Descending Aus ATC (RADAR)
Thu 12:01:36 PM -33.9228 150.9893 123° Southeast 106 122 -563 Descending Aus ATC (RADAR)

Login

Don't have an account? Register now (free) for customized features, flight alerts, and more!